Time;durP1;ratioP1;P1;durP2;ratioP2;P2;SDS_P1;SDS_P2;PMS_P1;PMS_P2;Temp;Humidity;BMP_temperature;BMP_pressure;BME280_temperature;BME280_humidity;BME280_pressure;Samples;Min_cycle;Max_cycle;Signal;HPM_P1;HPM_P2
2022/09/27 00:01:36;;;;;;;;;;;10.40;99.90;;;;;;5042793;28;19963;-74
2022/09/27 00:04:01;;;;;;;;;;;10.40;99.90;;;;;;5051812;28;20299;-74
2022/09/27 00:06:31;;;;;;;;;;;10.50;99.90;;;;;;5052802;28;19920;-74
2022/09/27 00:08:57;;;;;;;;;;;10.40;99.90;;;;;;5043191;28;19920;-75
2022/09/27 00:11:33;;;;;;;;;;;10.50;99.90;;;;;;5051924;28;19970;-75
2022/09/27 00:13:59;;;;;;;;;;;10.50;99.90;;;;;;5043518;28;19925;-74
2022/09/27 00:16:25;;;;;;;;;;;10.40;99.90;;;;;;5005053;28;1081310;-74
2022/09/27 00:18:51;;;;;;;;;;;10.40;99.90;;;;;;5046036;28;19920;-75
2022/09/27 00:21:16;;;;;;;;;;;10.40;99.90;;;;;;5044384;28;19943;-75
2022/09/27 00:23:42;;;;;;;;;;;10.30;99.90;;;;;;5065498;28;19963;-75
2022/09/27 00:26:09;;;;;;;;;;;10.30;99.90;;;;;;5043637;28;19920;-74
2022/09/27 00:28:35;;;;;;;;;;;10.30;99.90;;;;;;5046207;28;19928;-74
2022/09/27 00:31:00;;;;;;;;;;;10.40;99.90;;;;;;5044225;28;19920;-75
2022/09/27 00:33:26;;;;;;;;;;;10.30;99.90;;;;;;5045310;28;20015;-74
2022/09/27 00:35:52;;;;;;;;;;;10.40;99.90;;;;;;5042797;28;20383;-75
2022/09/27 00:38:20;;;;;;;;;;;10.30;99.90;;;;;;5063023;28;19921;-75
2022/09/27 00:40:46;;;;;;;;;;;10.20;99.90;;;;;;5044209;28;20023;-74
2022/09/27 00:43:19;;;;;;;;;;;10.20;99.90;;;;;;5064348;28;19966;-74
2022/09/27 00:45:54;;;;;;;;;;;10.10;99.90;;;;;;5042910;28;19974;-74
2022/09/27 00:48:22;;;;;;;;;;;10.10;99.90;;;;;;5063568;28;19920;-74
2022/09/27 00:50:49;;;;;;;;;;;10.10;99.90;;;;;;5062103;28;20315;-74
2022/09/27 00:53:18;;;;;;;;;;;10.10;99.90;;;;;;5045310;28;19974;-74
2022/09/27 00:55:45;;;;;;;;;;;10.30;99.90;;;;;;5041269;28;19921;-75
2022/09/27 00:58:13;;;;;;;;;;;10.20;99.90;;;;;;5064449;28;19971;-75
2022/09/27 01:00:42;;;;;;;;;;;10.40;99.90;;;;;;5042518;28;20011;-75
2022/09/27 01:03:08;;;;;;;;;;;10.20;99.90;;;;;;5057491;28;19933;-74
2022/09/27 01:05:34;;;;;;;;;;;10.30;99.90;;;;;;5039010;28;19921;-74
2022/09/27 01:07:59;;;;;;;;;;;10.30;99.90;;;;;;5045623;28;19928;-74
2022/09/27 01:10:28;;;;;;;;;;;10.30;99.90;;;;;;5061614;28;19920;-75
2022/09/27 01:13:13;;;;;;;;;;;10.30;99.90;;;;;;5045171;28;20395;-76
2022/09/27 01:15:49;;;;;;;;;;;10.30;99.90;;;;;;5057102;28;19969;-75
2022/09/27 01:18:37;;;;;;;;;;;10.30;99.90;;;;;;5052671;28;20439;-74
2022/09/27 01:21:13;;;;;;;;;;;10.20;99.90;;;;;;5003653;28;20373;-75
2022/09/27 01:23:49;;;;;;;;;;;10.10;99.90;;;;;;5039234;28;20429;-75
2022/09/27 01:26:20;;;;;;;;;;;10.00;99.90;;;;;;5052599;28;19921;-74
2022/09/27 01:29:04;;;;;;;;;;;10.00;99.90;;;;;;5051570;28;20008;-74
2022/09/27 01:31:43;;;;;;;;;;;10.00;99.90;;;;;;5038574;28;19921;-74
2022/09/27 01:34:24;;;;;;;;;;;10.00;99.90;;;;;;5049423;28;19925;-74
2022/09/27 01:37:08;;;;;;;;;;;10.00;99.90;;;;;;5042602;28;19964;-75
2022/09/27 01:39:49;;;;;;;;;;;10.00;99.90;;;;;;5048793;28;19921;-75
2022/09/27 01:42:17;;;;;;;;;;;10.10;99.90;;;;;;5051556;28;19956;-75
2022/09/27 01:44:48;;;;;;;;;;;10.10;99.90;;;;;;5042330;28;20335;-74
2022/09/27 01:47:18;;;;;;;;;;;10.20;99.90;;;;;;5043102;28;20002;-75
2022/09/27 01:49:51;;;;;;;;;;;10.20;99.90;;;;;;5051013;28;19959;-74
2022/09/27 01:52:18;;;;;;;;;;;10.20;99.90;;;;;;5042405;28;19967;-74
2022/09/27 01:54:45;;;;;;;;;;;10.10;99.90;;;;;;5042442;28;20015;-74
2022/09/27 01:57:12;;;;;;;;;;;10.10;99.90;;;;;;5041814;28;19920;-74
2022/09/27 01:59:46;;;;;;;;;;;10.10;99.90;;;;;;5051592;28;19928;-74
2022/09/27 02:02:13;;;;;;;;;;;10.10;99.90;;;;;;5051725;28;19972;-75
2022/09/27 02:04:39;;;;;;;;;;;10.00;99.90;;;;;;5040948;28;19920;-75
2022/09/27 02:07:09;;;;;;;;;;;9.90;99.90;;;;;;5042787;28;19920;-75
2022/09/27 02:09:37;;;;;;;;;;;10.00;99.90;;;;;;5041023;28;20019;-75
2022/09/27 02:12:04;;;;;;;;;;;9.90;99.90;;;;;;5042444;28;19954;-74
2022/09/27 02:14:33;;;;;;;;;;;9.90;99.90;;;;;;5034678;28;19952;-75
2022/09/27 02:17:07;;;;;;;;;;;9.90;99.90;;;;;;5036909;28;19978;-74
2022/09/27 02:19:38;;;;;;;;;;;9.90;99.90;;;;;;5034024;28;19920;-75
2022/09/27 02:22:19;;;;;;;;;;;9.90;99.90;;;;;;5036445;28;19927;-74
2022/09/27 02:24:48;;;;;;;;;;;9.80;99.90;;;;;;5035568;28;19959;-74
2022/09/27 02:27:17;;;;;;;;;;;9.80;99.90;;;;;;5051275;28;20384;-75
2022/09/27 02:29:49;;;;;;;;;;;9.90;99.90;;;;;;5050031;28;19920;-75
2022/09/27 02:32:15;;;;;;;;;;;9.90;99.90;;;;;;5050855;28;20019;-75
2022/09/27 02:34:42;;;;;;;;;;;9.90;99.90;;;;;;5035348;28;20004;-75
2022/09/27 02:37:07;;;;;;;;;;;10.00;99.90;;;;;;5036032;28;19927;-75
2022/09/27 02:39:33;;;;;;;;;;;9.90;99.90;;;;;;5050509;28;19924;-75
2022/09/27 02:41:58;;;;;;;;;;;9.80;99.90;;;;;;5037367;28;20273;-74
2022/09/27 02:44:25;;;;;;;;;;;9.80;99.90;;;;;;5039059;28;20007;-75
2022/09/27 02:47:11;;;;;;;;;;;9.70;99.90;;;;;;5041719;28;19974;-74
2022/09/27 02:49:52;;;;;;;;;;;9.70;99.90;;;;;;5040086;28;19924;-75
2022/09/27 02:52:25;;;;;;;;;;;9.70;99.90;;;;;;5046402;28;19999;-75
2022/09/27 02:55:02;;;;;;;;;;;9.60;99.90;;;;;;5038441;28;19974;-74
2022/09/27 02:57:45;;;;;;;;;;;9.60;99.90;;;;;;5041852;28;19979;-74
2022/09/27 03:00:33;;;;;;;;;;;9.50;99.90;;;;;;5041401;28;20400;-74
2022/09/27 03:03:02;;;;;;;;;;;9.50;99.90;;;;;;5039396;28;19928;-74
2022/09/27 03:05:29;;;;;;;;;;;9.50;99.90;;;;;;5042819;28;19920;-74
2022/09/27 03:07:55;;;;;;;;;;;9.50;99.90;;;;;;5044909;28;19927;-74
2022/09/27 03:10:23;;;;;;;;;;;9.80;99.90;;;;;;5045267;28;19921;-75
2022/09/27 03:12:49;;;;;;;;;;;9.50;99.90;;;;;;5054335;28;20011;-75
2022/09/27 03:15:15;;;;;;;;;;;9.50;99.90;;;;;;5054979;28;20016;-75
2022/09/27 03:17:40;;;;;;;;;;;9.50;99.90;;;;;;5032517;28;19921;-72
2022/09/27 03:20:06;;;;;;;;;;;9.60;99.90;;;;;;5034200;28;19929;-73
2022/09/27 03:22:32;;;;;;;;;;;9.70;99.90;;;;;;5033058;28;19921;-72
2022/09/27 03:24:57;;;;;;;;;;;9.90;99.90;;;;;;5033909;28;20296;-72
2022/09/27 03:27:23;;;;;;;;;;;9.70;99.90;;;;;;5033572;28;19928;-75
2022/09/27 03:29:49;;;;;;;;;;;9.70;99.90;;;;;;5033555;28;19925;-74
2022/09/27 03:32:14;;;;;;;;;;;9.70;99.90;;;;;;5033145;28;19928;-72
2022/09/27 03:34:40;;;;;;;;;;;9.70;99.90;;;;;;5033341;28;19921;-74
2022/09/27 03:37:06;;;;;;;;;;;9.80;99.90;;;;;;5034869;28;19921;-75
2022/09/27 03:39:32;;;;;;;;;;;9.80;99.90;;;;;;5033196;28;19972;-77
2022/09/27 03:41:57;;;;;;;;;;;9.80;99.90;;;;;;5033979;28;19968;-77
2022/09/27 03:44:23;;;;;;;;;;;9.90;99.90;;;;;;5033942;28;19921;-74
2022/09/27 03:46:48;;;;;;;;;;;9.80;99.90;;;;;;5033264;28;20373;-73
2022/09/27 03:49:14;;;;;;;;;;;9.80;99.90;;;;;;5032423;28;20347;-73
2022/09/27 03:51:40;;;;;;;;;;;9.80;99.90;;;;;;5034277;28;19927;-73
2022/09/27 03:54:05;;;;;;;;;;;9.80;99.90;;;;;;5029010;28;19921;-74
2022/09/27 03:56:31;;;;;;;;;;;9.70;99.90;;;;;;5033198;28;20320;-71
2022/09/27 03:58:56;;;;;;;;;;;9.70;99.90;;;;;;5033113;28;19928;-74
2022/09/27 04:01:22;;;;;;;;;;;9.70;99.90;;;;;;5033658;28;19920;-75
2022/09/27 04:03:48;;;;;;;;;;;9.70;99.90;;;;;;5032092;28;19975;-76
2022/09/27 04:06:14;;;;;;;;;;;9.70;99.90;;;;;;5032810;28;19921;-79
2022/09/27 04:08:39;;;;;;;;;;;9.70;99.90;;;;;;5034019;28;20323;-79
2022/09/27 04:11:08;;;;;;;;;;;9.80;99.90;;;;;;5032367;28;19975;-79
2022/09/27 04:13:34;;;;;;;;;;;9.90;99.90;;;;;;5028270;28;19948;-74
2022/09/27 04:16:02;;;;;;;;;;;9.80;99.90;;;;;;5031060;28;20388;-74
2022/09/27 04:18:28;;;;;;;;;;;9.80;99.90;;;;;;5033050;28;19921;-71
2022/09/27 04:20:54;;;;;;;;;;;9.80;99.90;;;;;;5034269;28;19928;-71
2022/09/27 04:23:19;;;;;;;;;;;9.70;99.90;;;;;;5031044;28;19990;-73
2022/09/27 04:25:45;;;;;;;;;;;9.70;99.90;;;;;;5033926;28;20439;-74
2022/09/27 04:28:11;;;;;;;;;;;9.60;99.90;;;;;;5031868;28;20266;-70
2022/09/27 04:30:37;;;;;;;;;;;9.50;99.90;;;;;;5031424;28;19925;-71
2022/09/27 04:33:02;;;;;;;;;;;9.50;99.90;;;;;;5032380;28;19928;-71
2022/09/27 04:38:13;;;;;;;;;;;9.50;99.90;;;;;;5029267;28;19921;-71
2022/09/27 04:40:38;;;;;;;;;;;9.50;99.90;;;;;;5033303;28;19931;-73
2022/09/27 04:43:04;;;;;;;;;;;9.40;99.90;;;;;;5033133;28;20015;-73
2022/09/27 04:45:30;;;;;;;;;;;9.40;99.90;;;;;;5031314;28;20000;-73
2022/09/27 04:47:55;;;;;;;;;;;9.60;99.90;;;;;;5032261;28;19971;-71
2022/09/27 04:50:21;;;;;;;;;;;9.50;99.90;;;;;;5032363;28;19936;-73
2022/09/27 04:52:51;;;;;;;;;;;9.60;99.90;;;;;;5032480;28;20008;-73
2022/09/27 04:55:16;;;;;;;;;;;9.70;99.90;;;;;;5032050;28;19921;-74
2022/09/27 04:57:42;;;;;;;;;;;9.60;99.90;;;;;;5031785;28;20423;-73
2022/09/27 05:00:08;;;;;;;;;;;9.60;99.90;;;;;;5031090;28;20008;-71
2022/09/27 05:02:33;;;;;;;;;;;9.60;99.90;;;;;;5032442;28;20284;-72
2022/09/27 05:05:02;;;;;;;;;;;9.60;99.90;;;;;;5032844;28;20023;-71
2022/09/27 05:07:28;;;;;;;;;;;9.60;99.90;;;;;;5032322;28;19995;-73
2022/09/27 05:09:54;;;;;;;;;;;9.60;99.90;;;;;;5028699;28;20365;-71
2022/09/27 05:12:20;;;;;;;;;;;9.60;99.90;;;;;;5031149;28;20477;-71
2022/09/27 05:14:46;;;;;;;;;;;9.60;99.90;;;;;;5031657;28;19925;-73
2022/09/27 05:17:11;;;;;;;;;;;9.50;99.90;;;;;;5053685;28;20015;-73
2022/09/27 05:19:38;;;;;;;;;;;9.50;99.90;;;;;;5043594;28;20020;-74
2022/09/27 05:22:05;;;;;;;;;;;9.60;99.90;;;;;;5043604;28;20424;-71
2022/09/27 05:24:32;;;;;;;;;;;9.50;99.90;;;;;;5041467;28;19927;-72
2022/09/27 05:27:01;;;;;;;;;;;9.50;99.90;;;;;;5036859;28;19956;-73
2022/09/27 05:29:27;;;;;;;;;;;9.50;99.90;;;;;;5056513;28;20009;-73
2022/09/27 05:31:52;;;;;;;;;;;9.50;99.90;;;;;;5058452;28;20369;-72
2022/09/27 05:34:21;;;;;;;;;;;9.60;99.90;;;;;;5044354;28;19920;-70
2022/09/27 05:36:47;;;;;;;;;;;9.60;99.90;;;;;;5045722;28;19921;-73
2022/09/27 05:39:12;;;;;;;;;;;9.60;99.90;;;;;;5067120;28;19928;-80
2022/09/27 05:41:39;;;;;;;;;;;9.60;99.90;;;;;;5063387;28;20284;-70
2022/09/27 05:44:05;;;;;;;;;;;9.60;99.90;;;;;;5061616;28;20372;-72
2022/09/27 05:46:30;;;;;;;;;;;9.70;99.90;;;;;;5044343;28;19926;-75
2022/09/27 05:48:56;;;;;;;;;;;9.60;99.90;;;;;;5042032;28;20018;-74
2022/09/27 05:51:21;;;;;;;;;;;9.60;99.90;;;;;;5043440;28;20007;-74
2022/09/27 05:53:47;;;;;;;;;;;9.70;99.90;;;;;;5042310;28;19996;-72
2022/09/27 05:56:12;;;;;;;;;;;9.80;99.90;;;;;;5062343;28;20299;-71
2022/09/27 05:58:38;;;;;;;;;;;9.60;99.90;;;;;;5043565;28;19925;-70
2022/09/27 06:01:07;;;;;;;;;;;9.60;99.90;;;;;;5044620;28;19927;-70
2022/09/27 06:03:33;;;;;;;;;;;9.60;99.90;;;;;;5043092;28;20303;-71
2022/09/27 06:06:01;;;;;;;;;;;9.70;99.90;;;;;;5061584;28;19924;-71
2022/09/27 06:08:33;;;;;;;;;;;9.60;99.90;;;;;;5041053;28;19928;-71
2022/09/27 06:11:06;;;;;;;;;;;9.70;99.90;;;;;;5061627;28;19928;-70
2022/09/27 06:13:35;;;;;;;;;;;9.70;99.90;;;;;;5043292;28;20269;-73
2022/09/27 06:16:01;;;;;;;;;;;9.70;99.90;;;;;;5041391;28;19920;-70
2022/09/27 06:18:27;;;;;;;;;;;9.80;99.90;;;;;;5041746;28;20240;-70
2022/09/27 06:20:52;;;;;;;;;;;9.90;99.90;;;;;;5051241;28;19931;-72
2022/09/27 06:23:19;;;;;;;;;;;9.90;99.90;;;;;;5041143;28;19921;-70
2022/09/27 06:25:45;;;;;;;;;;;10.00;99.90;;;;;;5041987;28;19927;-80
2022/09/27 06:28:12;;;;;;;;;;;10.00;99.90;;;;;;5050990;28;20369;-75
2022/09/27 06:30:42;;;;;;;;;;;10.10;99.90;;;;;;5050724;28;20368;-76
2022/09/27 06:33:09;;;;;;;;;;;10.10;99.90;;;;;;5038743;28;19971;-75
2022/09/27 06:35:35;;;;;;;;;;;10.10;99.90;;;;;;5049403;28;19943;-75
2022/09/27 06:38:04;;;;;;;;;;;10.20;99.90;;;;;;5040993;28;20436;-75
2022/09/27 06:40:30;;;;;;;;;;;10.30;99.90;;;;;;5043056;28;19928;-77
2022/09/27 06:43:06;;;;;;;;;;;10.40;99.90;;;;;;5055383;28;19921;-75
2022/09/27 06:45:34;;;;;;;;;;;10.40;99.90;;;;;;5053299;28;19929;-75
2022/09/27 06:48:01;;;;;;;;;;;10.70;99.90;;;;;;5055016;28;19948;-75
2022/09/27 06:50:31;;;;;;;;;;;10.60;99.90;;;;;;5045041;28;19921;-74
2022/09/27 06:52:59;;;;;;;;;;;10.70;99.90;;;;;;5044484;28;19973;-74
2022/09/27 06:55:25;;;;;;;;;;;10.80;99.90;;;;;;5045240;28;19971;-74
2022/09/27 07:00:38;;;;;;;;;;;10.90;99.90;;;;;;5041012;28;19920;-75
2022/09/27 07:03:07;;;;;;;;;;;10.90;99.90;;;;;;5039660;28;20357;-75
2022/09/27 07:05:33;;;;;;;;;;;10.90;99.90;;;;;;5052570;28;19925;-75
2022/09/27 07:07:58;;;;;;;;;;;11.10;99.90;;;;;;5054132;28;20290;-75
2022/09/27 07:10:25;;;;;;;;;;;10.80;99.90;;;;;;5044888;28;19921;-75
2022/09/27 07:12:53;;;;;;;;;;;10.70;99.90;;;;;;5043997;28;20356;-75
2022/09/27 07:15:22;;;;;;;;;;;10.70;99.90;;;;;;5045080;28;19924;-75
2022/09/27 07:17:54;;;;;;;;;;;10.70;99.90;;;;;;5045177;28;19921;-76
2022/09/27 07:20:20;;;;;;;;;;;10.60;99.90;;;;;;5043997;28;19968;-76
2022/09/27 07:22:45;;;;;;;;;;;10.70;99.90;;;;;;5045021;28;19963;-75
2022/09/27 07:25:11;;;;;;;;;;;11.10;99.90;;;;;;5045331;28;19927;-75
2022/09/27 07:27:37;;;;;;;;;;;10.80;99.90;;;;;;5044220;28;20345;-75
2022/09/27 07:30:04;;;;;;;;;;;10.80;99.90;;;;;;5045033;28;19954;-76
2022/09/27 07:32:29;;;;;;;;;;;11.00;99.90;;;;;;5050410;28;19964;-75
2022/09/27 07:34:55;;;;;;;;;;;11.20;99.90;;;;;;5053601;28;20443;-75
2022/09/27 07:37:20;;;;;;;;;;;11.30;99.90;;;;;;5044514;28;19935;-75
2022/09/27 07:39:46;;;;;;;;;;;11.70;99.90;;;;;;5044895;28;19935;-74
2022/09/27 07:42:11;;;;;;;;;;;11.90;99.90;;;;;;5053467;28;19936;-74
2022/09/27 07:44:37;;;;;;;;;;;11.90;99.90;;;;;;5053938;28;20329;-74
2022/09/27 07:47:05;;;;;;;;;;;11.70;99.90;;;;;;5053795;28;19927;-73
2022/09/27 07:49:31;;;;;;;;;;;11.60;99.90;;;;;;5044684;28;19943;-74
2022/09/27 07:51:56;;;;;;;;;;;11.50;99.90;;;;;;5044175;28;19917;-73
2022/09/27 07:54:23;;;;;;;;;;;11.40;99.90;;;;;;5044034;28;20288;-74
2022/09/27 07:56:48;;;;;;;;;;;11.30;99.90;;;;;;5044506;28;19924;-73
2022/09/27 07:59:14;;;;;;;;;;;11.20;99.90;;;;;;5054211;28;20386;-73
2022/09/27 08:01:39;;;;;;;;;;;11.20;99.90;;;;;;5052997;28;19920;-72
2022/09/27 08:04:05;;;;;;;;;;;11.30;99.90;;;;;;5044890;28;19921;-73
2022/09/27 08:06:30;;;;;;;;;;;11.50;99.90;;;;;;5043603;28;19921;-74
2022/09/27 08:08:57;;;;;;;;;;;11.70;99.90;;;;;;5053130;28;19924;-74
2022/09/27 08:11:23;;;;;;;;;;;12.10;99.90;;;;;;5039874;28;19925;-74
2022/09/27 08:13:51;;;;;;;;;;;12.30;99.90;;;;;;5043895;28;19924;-73
2022/09/27 08:16:17;;;;;;;;;;;12.30;99.90;;;;;;5036363;28;19929;-74
2022/09/27 08:18:42;;;;;;;;;;;12.30;99.90;;;;;;5033565;28;19976;-73
2022/09/27 08:21:08;;;;;;;;;;;12.20;99.90;;;;;;5033624;28;20020;-74
2022/09/27 08:23:33;;;;;;;;;;;12.20;99.90;;;;;;5032299;28;19975;-74
2022/09/27 08:25:59;;;;;;;;;;;12.20;99.90;;;;;;5033819;28;19924;-74
2022/09/27 08:28:26;;;;;;;;;;;12.20;99.90;;;;;;5032415;28;20401;-74
2022/09/27 08:30:51;;;;;;;;;;;12.20;99.90;;;;;;5031775;28;19921;-74
2022/09/27 08:33:17;;;;;;;;;;;12.30;99.90;;;;;;5033375;28;19966;-74
2022/09/27 08:35:42;;;;;;;;;;;12.30;99.90;;;;;;5033403;28;19927;-74
2022/09/27 08:38:08;;;;;;;;;;;12.20;99.90;;;;;;5031598;28;19928;-74
2022/09/27 08:40:46;;;;;;;;;;;12.00;99.90;;;;;;5031635;28;19948;-74
2022/09/27 08:43:21;;;;;;;;;;;11.90;99.90;;;;;;5031050;28;19991;-73
2022/09/27 08:45:50;;;;;;;;;;;11.80;99.90;;;;;;5028253;28;20424;-73
2022/09/27 08:48:16;;;;;;;;;;;11.70;99.90;;;;;;5032141;28;19921;-74
2022/09/27 08:50:43;;;;;;;;;;;11.70;99.90;;;;;;5032185;28;20147;-74
2022/09/27 08:53:32;;;;;;;;;;;11.70;99.90;;;;;;5033099;28;19921;-74
2022/09/27 08:56:02;;;;;;;;;;;11.80;99.90;;;;;;5031023;28;19944;-74
2022/09/27 08:58:28;;;;;;;;;;;12.00;99.90;;;;;;5030412;28;19927;-74
2022/09/27 09:00:54;;;;;;;;;;;12.30;99.90;;;;;;5033178;28;19920;-74
2022/09/27 09:03:23;;;;;;;;;;;12.60;99.90;;;;;;5030377;28;19967;-74
2022/09/27 09:06:04;;;;;;;;;;;12.80;99.90;;;;;;5032317;28;20000;-74
2022/09/27 09:08:34;;;;;;;;;;;13.40;99.90;;;;;;5032332;28;20400;-74
2022/09/27 09:13:47;;;;;;;;;;;15.30;99.90;;;;;;5027870;28;19925;-74
2022/09/27 09:16:36;;;;;;;;;;;15.90;99.90;;;;;;5031495;28;19921;-75
2022/09/27 09:19:22;;;;;;;;;;;16.00;99.90;;;;;;5018733;28;20023;-75
2022/09/27 09:21:50;;;;;;;;;;;16.30;99.90;;;;;;5028488;28;19928;-75
2022/09/27 09:24:30;;;;;;;;;;;16.50;99.90;;;;;;5032664;28;19921;-73
2022/09/27 09:27:13;;;;;;;;;;;16.60;99.90;;;;;;5031939;28;19966;-72
2022/09/27 09:29:42;;;;;;;;;;;16.70;99.90;;;;;;5030780;28;20373;-73
2022/09/27 09:32:26;;;;;;;;;;;16.60;99.90;;;;;;5032557;28;19967;-73
2022/09/27 09:35:14;;;;;;;;;;;16.10;99.90;;;;;;5028392;28;19925;-73
2022/09/27 09:37:44;;;;;;;;;;;15.50;99.90;;;;;;5026743;28;19925;-72
2022/09/27 09:40:27;;;;;;;;;;;14.90;99.90;;;;;;5026840;28;19925;-72
2022/09/27 09:43:04;;;;;;;;;;;14.50;99.90;;;;;;5030017;28;19925;-73
2022/09/27 09:45:32;;;;;;;;;;;14.10;99.90;;;;;;5030868;28;19928;-73
2022/09/27 09:48:04;;;;;;;;;;;13.90;99.90;;;;;;5031679;28;20337;-73
2022/09/27 09:50:34;;;;;;;;;;;13.60;99.90;;;;;;5032202;28;19932;-73
2022/09/27 09:53:04;;;;;;;;;;;13.40;99.90;;;;;;5031190;28;20368;-74
2022/09/27 09:55:34;;;;;;;;;;;13.20;99.90;;;;;;5030136;28;19925;-75
2022/09/27 09:58:09;;;;;;;;;;;13.10;99.90;;;;;;5031155;28;19964;-75
2022/09/27 10:00:36;;;;;;;;;;;13.20;99.90;;;;;;5031460;28;19921;-74
2022/09/27 10:03:02;;;;;;;;;;;13.40;99.90;;;;;;5030640;28;19928;-73
2022/09/27 10:05:28;;;;;;;;;;;13.80;99.90;;;;;;5030367;28;19921;-75
2022/09/27 10:07:56;;;;;;;;;;;14.10;99.90;;;;;;5030463;28;20353;-75
2022/09/27 10:10:22;;;;;;;;;;;14.50;99.90;;;;;;5030401;28;20312;-75
2022/09/27 10:12:48;;;;;;;;;;;14.70;99.90;;;;;;5032522;28;19943;-75
2022/09/27 10:15:32;;;;;;;;;;;14.80;99.90;;;;;;5035724;28;19947;-75
2022/09/27 10:17:58;;;;;;;;;;;14.70;99.90;;;;;;5035124;28;19921;-75
2022/09/27 10:20:24;;;;;;;;;;;14.40;99.90;;;;;;5034513;28;19924;-76
2022/09/27 10:22:54;;;;;;;;;;;14.10;99.90;;;;;;5035023;28;20281;-76
2022/09/27 10:25:20;;;;;;;;;;;13.80;99.90;;;;;;5034490;28;19924;-76
2022/09/27 10:27:55;;;;;;;;;;;14.30;99.90;;;;;;5035245;28;19928;-75
2022/09/27 10:30:21;;;;;;;;;;;13.70;99.90;;;;;;5033612;28;19921;-76
2022/09/27 10:32:49;;;;;;;;;;;14.40;99.90;;;;;;5034432;28;19921;-76
2022/09/27 10:35:40;;;;;;;;;;;15.20;99.90;;;;;;5034604;28;19928;-75
2022/09/27 10:38:21;;;;;;;;;;;16.40;99.90;;;;;;5028997;28;19924;-75
2022/09/27 10:40:51;;;;;;;;;;;17.80;99.90;;;;;;5034958;28;19943;-76
2022/09/27 10:43:33;;;;;;;;;;;18.40;99.90;;;;;;5033109;28;19921;-76
2022/09/27 10:46:04;;;;;;;;;;;18.10;99.90;;;;;;5030903;28;19991;-76
2022/09/27 10:48:29;;;;;;;;;;;17.40;99.90;;;;;;5031656;28;19947;-76
2022/09/27 10:50:58;;;;;;;;;;;17.00;99.90;;;;;;5035134;28;20365;-75
2022/09/27 10:53:23;;;;;;;;;;;16.70;99.90;;;;;;5033594;28;19932;-76
2022/09/27 10:55:50;;;;;;;;;;;16.10;99.90;;;;;;5035374;28;19925;-76
2022/09/27 10:58:25;;;;;;;;;;;15.90;99.90;;;;;;5034564;28;19925;-76
2022/09/27 11:00:55;;;;;;;;;;;15.80;99.90;;;;;;5035540;28;19928;-76
2022/09/27 11:03:20;;;;;;;;;;;16.00;99.90;;;;;;5033381;28;20345;-76
2022/09/27 11:05:46;;;;;;;;;;;16.30;99.90;;;;;;5033357;28;19921;-75
2022/09/27 11:08:23;;;;;;;;;;;16.50;99.90;;;;;;5033685;28;19928;-76
2022/09/27 11:11:16;;;;;;;;;;;16.40;99.90;;;;;;5033917;28;19936;-75
2022/09/27 11:14:03;;;;;;;;;;;16.20;99.90;;;;;;5032488;28;19921;-74
2022/09/27 11:16:35;;;;;;;;;;;15.90;99.90;;;;;;5030071;28;19921;-73
2022/09/27 11:19:16;;;;;;;;;;;15.60;99.90;;;;;;5032976;28;19921;-74
2022/09/27 11:21:44;;;;;;;;;;;15.40;99.90;;;;;;5033917;28;19991;-74
2022/09/27 11:24:25;;;;;;;;;;;15.30;99.90;;;;;;5034833;28;20350;-75
2022/09/27 11:27:04;;;;;;;;;;;15.70;99.90;;;;;;5025172;28;19927;-77
2022/09/27 11:29:44;;;;;;;;;;;16.20;99.90;;;;;;5043782;28;20052;-74
2022/09/27 11:32:14;;;;;;;;;;;16.70;99.90;;;;;;5032546;28;20415;-74
2022/09/27 11:34:46;;;;;;;;;;;17.00;99.90;;;;;;5034487;28;19968;-74
2022/09/27 11:37:35;;;;;;;;;;;17.10;99.90;;;;;;5034370;28;20284;-74
2022/09/27 11:40:12;;;;;;;;;;;17.20;99.90;;;;;;5030920;28;19921;-74
2022/09/27 11:42:50;;;;;;;;;;;17.20;99.90;;;;;;5037850;28;20045;-74
2022/09/27 11:45:29;;;;;;;;;;;17.40;99.90;;;;;;5036672;28;19957;-74
2022/09/27 11:48:06;;;;;;;;;;;17.70;99.90;;;;;;5030732;28;19975;-74
2022/09/27 11:50:41;;;;;;;;;;;17.80;99.90;;;;;;5033443;28;19944;-74
2022/09/27 11:53:22;;;;;;;;;;;17.40;99.70;;;;;;5032603;28;19925;-74
2022/09/27 11:55:58;;;;;;;;;;;17.00;99.30;;;;;;5029928;28;20373;-74
2022/09/27 11:58:43;;;;;;;;;;;17.20;99.90;;;;;;5030068;28;20288;-73
2022/09/27 12:01:25;;;;;;;;;;;16.60;99.90;;;;;;5032492;28;20341;-73
2022/09/27 12:03:57;;;;;;;;;;;15.70;99.90;;;;;;5031348;28;20019;-73
2022/09/27 12:06:23;;;;;;;;;;;14.90;99.90;;;;;;5034259;28;19920;-72
2022/09/27 12:09:06;;;;;;;;;;;14.30;99.90;;;;;;5032405;28;19923;-72
2022/09/27 12:11:43;;;;;;;;;;;14.20;99.90;;;;;;5033917;28;19921;-73
2022/09/27 12:14:09;;;;;;;;;;;15.20;99.90;;;;;;5032343;28;19925;-73
2022/09/27 12:16:36;;;;;;;;;;;15.90;99.90;;;;;;5031572;28;20285;-73
2022/09/27 12:19:02;;;;;;;;;;;16.10;99.90;;;;;;5032714;28;19956;-74
2022/09/27 12:21:30;;;;;;;;;;;15.70;99.90;;;;;;5031454;28;20379;-74
2022/09/27 12:23:56;;;;;;;;;;;15.40;99.90;;;;;;5032241;28;19967;-74
2022/09/27 12:26:27;;;;;;;;;;;15.00;99.90;;;;;;5033851;28;19928;-74
2022/09/27 12:28:54;;;;;;;;;;;14.60;99.90;;;;;;5032961;28;19976;-74
2022/09/27 12:31:24;;;;;;;;;;;14.10;99.90;;;;;;5032224;28;19929;-74
2022/09/27 12:34:08;;;;;;;;;;;13.80;99.90;;;;;;5032170;28;19932;-74
2022/09/27 12:36:36;;;;;;;;;;;13.60;99.90;;;;;;5031283;28;19929;-73
2022/09/27 12:39:25;;;;;;;;;;;13.00;99.90;;;;;;5032649;28;19921;-74
2022/09/27 12:41:59;;;;;;;;;;;12.70;99.90;;;;;;5022675;28;19971;-73
2022/09/27 12:44:26;;;;;;;;;;;12.30;99.90;;;;;;5031321;28;19944;-72
2022/09/27 12:46:51;;;;;;;;;;;12.20;99.90;;;;;;5036391;28;19921;-73
2022/09/27 12:49:17;;;;;;;;;;;12.10;99.90;;;;;;5034822;28;19944;-73
2022/09/27 12:51:45;;;;;;;;;;;11.90;99.90;;;;;;5033305;28;19928;-73
2022/09/27 12:54:11;;;;;;;;;;;11.70;99.90;;;;;;5033518;28;19917;-75
2022/09/27 12:57:00;;;;;;;;;;;11.60;99.90;;;;;;5030628;28;19947;-74
2022/09/27 12:59:35;;;;;;;;;;;11.40;99.90;;;;;;5032197;28;19968;-73
2022/09/27 13:02:19;;;;;;;;;;;11.50;99.90;;;;;;5032082;28;19927;-73
2022/09/27 13:04:55;;;;;;;;;;;11.60;99.90;;;;;;5028376;28;19921;-74
2022/09/27 13:07:39;;;;;;;;;;;11.80;99.90;;;;;;5032979;28;19921;-75
2022/09/27 13:10:08;;;;;;;;;;;12.00;99.90;;;;;;5026417;28;19921;-73
2022/09/27 13:12:34;;;;;;;;;;;12.10;99.90;;;;;;5026085;28;19975;-76
2022/09/27 13:15:02;;;;;;;;;;;12.30;99.90;;;;;;5031590;28;19936;-73
2022/09/27 13:17:39;;;;;;;;;;;12.30;99.90;;;;;;5052247;28;19929;-74
2022/09/27 13:20:23;;;;;;;;;;;12.40;99.90;;;;;;5037951;28;19971;-74
2022/09/27 13:22:49;;;;;;;;;;;12.50;99.90;;;;;;5037782;28;20006;-74
2022/09/27 13:25:33;;;;;;;;;;;12.60;99.90;;;;;;5035093;28;19975;-75
2022/09/27 13:27:59;;;;;;;;;;;12.80;99.90;;;;;;5053986;28;19970;-74
2022/09/27 13:30:27;;;;;;;;;;;13.00;99.90;;;;;;5054239;28;19928;-75
2022/09/27 13:33:08;;;;;;;;;;;13.70;99.90;;;;;;5034628;28;19924;-75
2022/09/27 13:35:33;;;;;;;;;;;13.20;99.90;;;;;;5037544;28;19927;-75
2022/09/27 13:37:59;;;;;;;;;;;13.40;99.90;;;;;;5056125;28;19925;-76
2022/09/27 13:40:35;;;;;;;;;;;13.40;99.90;;;;;;5040769;28;20525;-75
2022/09/27 13:43:06;;;;;;;;;;;13.40;99.90;;;;;;5038959;28;19944;-75
2022/09/27 13:45:55;;;;;;;;;;;13.40;99.90;;;;;;5035903;28;19921;-76
2022/09/27 13:48:21;;;;;;;;;;;13.50;99.90;;;;;;5042377;28;19986;-76
2022/09/27 13:50:56;;;;;;;;;;;13.50;99.90;;;;;;5035505;28;19975;-75
2022/09/27 13:53:27;;;;;;;;;;;13.50;99.90;;;;;;5040634;28;19924;-76
2022/09/27 13:55:55;;;;;;;;;;;13.50;99.90;;;;;;5038128;28;20652;-75
2022/09/27 13:58:21;;;;;;;;;;;13.60;99.90;;;;;;5052034;28;19924;-77
2022/09/27 14:00:48;;;;;;;;;;;13.80;99.90;;;;;;5043778;28;20384;-75
2022/09/27 14:03:16;;;;;;;;;;;13.80;99.90;;;;;;5039560;28;19921;-75
2022/09/27 14:05:53;;;;;;;;;;;13.90;99.90;;;;;;5061742;28;19968;-76
2022/09/27 14:08:23;;;;;;;;;;;13.90;99.90;;;;;;5036373;28;20031;-78
2022/09/27 14:10:49;;;;;;;;;;;13.90;99.90;;;;;;5032424;28;19928;-77
2022/09/27 14:13:18;;;;;;;;;;;13.90;99.90;;;;;;5040113;28;19925;-79
2022/09/27 14:15:45;;;;;;;;;;;13.90;99.90;;;;;;5046932;28;19947;-77
2022/09/27 14:18:13;;;;;;;;;;;13.70;99.90;;;;;;5054154;28;19927;-76
2022/09/27 14:20:43;;;;;;;;;;;13.70;99.90;;;;;;5054062;28;19960;-80
2022/09/27 14:23:17;;;;;;;;;;;13.60;99.90;;;;;;5038679;28;19921;-81
2022/09/27 14:25:44;;;;;;;;;;;13.50;99.90;;;;;;5048445;28;19924;-80
2022/09/27 14:28:21;;;;;;;;;;;13.50;99.90;;;;;;5045358;28;19928;-82
2022/09/27 14:30:46;;;;;;;;;;;13.50;99.90;;;;;;5048790;28;19924;-82
2022/09/27 14:33:32;;;;;;;;;;;13.50;99.90;;;;;;5062852;28;20390;-80
2022/09/27 14:38:42;;;;;;;;;;;13.40;99.90;;;;;;5040293;28;19999;-81
2022/09/27 14:41:11;;;;;;;;;;;13.40;99.90;;;;;;5043772;28;19944;-85
2022/09/27 14:43:41;;;;;;;;;;;13.40;99.90;;;;;;5042997;28;20385;-84
2022/09/27 14:46:22;;;;;;;;;;;13.30;99.90;;;;;;5035854;28;20372;-84
2022/09/27 14:48:49;;;;;;;;;;;13.30;99.90;;;;;;5040759;28;19927;-77